Time;durP1;ratioP1;P1;durP2;ratioP2;P2;SDS_P1;SDS_P2;PMS_P1;PMS_P2;Temp;Humidity;BMP_temperature;BMP_pressure;BME280_temperature;BME280_humidity;BME280_pressure;Samples;Min_cycle;Max_cycle;Signal;HPM_P1;HPM_P2
2021/07/06 00:01:08;;;;;;;2.60;1.40;;;14.80;99.90;;;;;;5032135;28;20096;-60
2021/07/06 00:03:33;;;;;;;2.25;1.38;;;14.70;99.90;;;;;;5032520;28;20112;-60
2021/07/06 00:05:59;;;;;;;2.38;1.70;;;14.70;99.90;;;;;;5032420;28;20067;-60
2021/07/06 00:08:24;;;;;;;1.48;1.38;;;14.70;99.90;;;;;;5031367;28;20076;-60
2021/07/06 00:10:50;;;;;;;1.77;1.50;;;14.60;99.90;;;;;;5037543;28;20025;-60
2021/07/06 00:13:16;;;;;;;2.40;1.88;;;14.60;99.90;;;;;;5030683;28;20049;-60
2021/07/06 00:15:42;;;;;;;2.90;2.15;;;14.50;99.90;;;;;;5031877;28;20048;-60
2021/07/06 00:18:07;;;;;;;4.30;2.03;;;14.50;99.90;;;;;;5032032;28;20476;-60
2021/07/06 00:20:33;;;;;;;2.75;2.30;;;14.50;99.90;;;;;;5032894;28;20031;-60
2021/07/06 00:23:04;;;;;;;2.97;1.92;;;14.50;99.90;;;;;;5032810;28;20057;-60
2021/07/06 00:25:30;;;;;;;2.22;2.03;;;14.50;99.90;;;;;;5032592;28;20500;-60
2021/07/06 00:27:56;;;;;;;3.65;2.30;;;14.50;99.90;;;;;;5018351;28;20079;-60
2021/07/06 00:30:23;;;;;;;2.80;2.03;;;14.50;99.90;;;;;;5044995;28;20032;-60
2021/07/06 00:32:49;;;;;;;1.67;1.58;;;14.50;99.90;;;;;;5051277;28;20062;-60
2021/07/06 00:35:15;;;;;;;2.55;1.95;;;14.50;99.90;;;;;;5038642;28;20132;-60
2021/07/06 00:37:41;;;;;;;2.00;1.80;;;14.50;99.90;;;;;;5033274;28;20071;-60
2021/07/06 00:40:07;;;;;;;3.92;2.35;;;14.50;99.90;;;;;;5033353;28;20103;-60
2021/07/06 00:42:33;;;;;;;3.35;2.00;;;14.50;99.90;;;;;;5032188;28;20450;-60
2021/07/06 00:44:59;;;;;;;2.60;2.40;;;14.40;99.90;;;;;;5033349;28;20045;-60
2021/07/06 00:47:35;;;;;;;3.95;2.20;;;14.50;99.90;;;;;;5033011;28;20405;-60
2021/07/06 00:50:05;;;;;;;4.22;2.15;;;14.50;99.90;;;;;;5033286;28;20051;-60
2021/07/06 00:52:30;;;;;;;3.90;2.00;;;14.50;99.90;;;;;;5033093;28;20022;-60
2021/07/06 00:54:56;;;;;;;2.38;2.17;;;14.50;99.90;;;;;;5031869;28;20161;-59
2021/07/06 00:57:29;;;;;;;2.30;2.10;;;14.50;99.90;;;;;;5031719;28;20377;-64
2021/07/06 01:00:08;;;;;;;3.90;2.25;;;14.50;99.90;;;;;;5033355;28;20112;-60
2021/07/06 01:02:33;;;;;;;3.47;2.53;;;14.60;99.90;;;;;;5037520;28;20037;-60
2021/07/06 01:04:59;;;;;;;3.58;1.90;;;14.60;99.90;;;;;;5053086;28;20036;-60
2021/07/06 01:07:24;;;;;;;2.90;2.28;;;14.70;99.90;;;;;;5052455;28;20039;-60
2021/07/06 01:09:50;;;;;;;2.22;1.75;;;14.70;99.90;;;;;;5052931;28;20020;-60
2021/07/06 01:12:16;;;;;;;2.45;2.22;;;14.70;99.90;;;;;;5051384;28;20057;-60
2021/07/06 01:14:42;;;;;;;1.95;1.75;;;14.80;99.90;;;;;;5052958;28;20029;-60
2021/07/06 01:17:08;;;;;;;3.58;2.17;;;14.80;99.90;;;;;;5052422;28;20023;-60
2021/07/06 01:19:35;;;;;;;3.10;2.03;;;14.80;99.90;;;;;;5051562;28;20116;-60
2021/07/06 01:22:04;;;;;;;3.42;2.05;;;14.80;99.90;;;;;;5052593;28;20061;-60
2021/07/06 01:24:29;;;;;;;2.83;2.28;;;14.80;99.90;;;;;;5052650;28;20104;-60
2021/07/06 01:26:55;;;;;;;3.78;2.13;;;14.90;99.90;;;;;;5051321;28;20420;-59
2021/07/06 01:29:21;;;;;;;2.55;2.28;;;14.90;99.90;;;;;;5052496;28;20032;-60
2021/07/06 01:31:50;;;;;;;2.33;2.05;;;15.00;99.90;;;;;;5052436;28;20028;-60
2021/07/06 01:34:17;;;;;;;2.05;1.83;;;14.90;99.90;;;;;;5052540;28;20388;-60
2021/07/06 01:36:47;;;;;;;4.43;2.17;;;15.00;99.90;;;;;;5038264;28;20112;-60
2021/07/06 01:39:13;;;;;;;2.65;2.45;;;14.90;99.90;;;;;;5032445;28;20021;-60
2021/07/06 01:41:40;;;;;;;4.07;2.55;;;15.00;99.90;;;;;;5031202;28;20045;-60
2021/07/06 01:44:18;;;;;;;1.92;1.80;;;15.00;99.90;;;;;;5032581;28;20025;-60
2021/07/06 01:46:44;;;;;;;1.98;1.83;;;14.90;99.90;;;;;;5031430;28;20021;-60
2021/07/06 01:49:14;;;;;;;4.53;2.03;;;14.90;99.90;;;;;;5032094;28;20040;-60
2021/07/06 01:51:41;;;;;;;2.63;2.13;;;14.90;99.90;;;;;;5031011;28;20485;-60
2021/07/06 01:54:06;;;;;;;2.13;1.85;;;14.90;99.90;;;;;;5032535;28;20037;-60
2021/07/06 01:56:46;;;;;;;3.03;2.15;;;14.90;99.90;;;;;;5030806;28;20044;-60
2021/07/06 01:59:12;;;;;;;2.47;1.95;;;14.90;99.90;;;;;;5032414;28;20033;-60
2021/07/06 02:01:39;;;;;;;3.13;2.83;;;15.00;99.90;;;;;;5031894;28;20045;-60
2021/07/06 02:04:05;;;;;;;2.75;2.13;;;15.00;99.90;;;;;;5049520;28;20415;-60
2021/07/06 02:06:31;;;;;;;2.58;2.38;;;14.90;99.90;;;;;;5052020;28;20144;-60
2021/07/06 02:08:57;;;;;;;2.88;2.40;;;14.90;99.90;;;;;;5050912;28;20459;-60
2021/07/06 02:11:23;;;;;;;3.05;1.80;;;14.80;99.90;;;;;;5050744;28;20105;-60
2021/07/06 02:13:49;;;;;;;2.67;2.00;;;14.80;99.90;;;;;;5052290;28;20051;-60
2021/07/06 02:16:15;;;;;;;1.90;1.65;;;14.80;99.90;;;;;;5051586;28;20051;-60
2021/07/06 02:18:41;;;;;;;3.35;1.83;;;14.80;99.90;;;;;;5052032;28;20025;-60
2021/07/06 02:21:07;;;;;;;1.50;1.40;;;14.80;99.90;;;;;;5051719;28;20025;-60
2021/07/06 02:23:33;;;;;;;2.00;1.85;;;14.80;99.90;;;;;;5051995;28;20036;-60
2021/07/06 02:26:01;;;;;;;3.45;2.13;;;14.90;99.90;;;;;;5051836;28;20033;-60
2021/07/06 02:28:26;;;;;;;2.55;2.35;;;14.90;99.90;;;;;;5050629;28;20116;-59
2021/07/06 02:30:52;;;;;;;4.05;2.70;;;14.90;99.90;;;;;;5050684;28;20470;-60
2021/07/06 02:33:18;;;;;;;2.40;2.05;;;15.00;99.90;;;;;;5050641;28;20025;-60
2021/07/06 02:35:44;;;;;;;2.10;1.90;;;15.00;99.90;;;;;;5045841;28;20018;-60
2021/07/06 02:38:11;;;;;;;2.55;2.00;;;14.90;99.90;;;;;;5031972;28;20017;-60
2021/07/06 02:40:37;;;;;;;3.50;2.83;;;14.90;99.90;;;;;;5031968;28;20479;-60
2021/07/06 02:43:03;;;;;;;2.50;2.30;;;14.90;99.90;;;;;;5030639;28;20025;-60
2021/07/06 02:45:29;;;;;;;3.40;2.08;;;14.90;99.90;;;;;;5031631;28;20022;-60
2021/07/06 02:47:55;;;;;;;3.08;2.38;;;14.90;99.90;;;;;;5031917;28;20036;-60
2021/07/06 02:50:23;;;;;;;2.78;2.42;;;14.90;99.90;;;;;;5031700;28;20052;-60
2021/07/06 02:52:49;;;;;;;2.65;2.45;;;14.90;99.90;;;;;;5031906;28;20021;-60
2021/07/06 02:55:16;;;;;;;2.78;2.50;;;14.80;99.90;;;;;;5031900;28;20028;-60
2021/07/06 02:57:42;;;;;;;3.33;3.03;;;14.80;99.90;;;;;;5032129;28;20097;-60
2021/07/06 03:00:14;;;;;;;5.22;2.58;;;14.80;99.90;;;;;;5035367;28;20029;-60
2021/07/06 03:02:42;;;;;;;5.38;2.50;;;14.80;99.90;;;;;;5040762;28;20049;-60
2021/07/06 03:05:09;;;;;;;3.72;2.55;;;14.80;99.90;;;;;;5055245;28;20020;-60
2021/07/06 03:07:36;;;;;;;4.72;3.10;;;14.80;99.90;;;;;;5054982;28;20075;-60
2021/07/06 03:10:22;;;;;;;3.35;3.03;;;14.80;99.90;;;;;;5055196;28;20029;-60
2021/07/06 03:12:48;;;;;;;5.80;2.90;;;14.80;99.90;;;;;;5053787;28;20025;-60
2021/07/06 03:15:17;;;;;;;4.85;3.13;;;14.80;99.90;;;;;;5055141;28;20031;-60
2021/07/06 03:17:43;;;;;;;4.80;3.60;;;14.90;99.90;;;;;;5054758;28;20066;-60
2021/07/06 03:20:11;;;;;;;3.72;3.33;;;14.90;99.90;;;;;;5054808;28;20518;-60
2021/07/06 03:22:37;;;;;;;3.85;2.65;;;14.90;99.90;;;;;;5054733;28;20025;-60
2021/07/06 03:25:05;;;;;;;3.15;2.85;;;15.00;99.90;;;;;;5054856;28;20035;-60
2021/07/06 03:27:30;;;;;;;3.38;2.92;;;14.90;99.90;;;;;;5053347;28;20029;-60
2021/07/06 03:29:55;;;;;;;2.60;2.30;;;14.90;99.90;;;;;;5054886;28;20075;-60
2021/07/06 03:32:21;;;;;;;3.53;3.20;;;14.90;99.90;;;;;;5054611;28;20072;-60
2021/07/06 03:34:47;;;;;;;4.45;3.38;;;14.90;99.90;;;;;;5054620;28;20548;-60
2021/07/06 03:37:12;;;;;;;3.90;3.55;;;15.00;99.90;;;;;;5036438;28;20025;-60
2021/07/06 03:39:39;;;;;;;3.42;3.13;;;15.10;99.90;;;;;;5034538;28;20477;-60
2021/07/06 03:42:09;;;;;;;2.92;2.70;;;15.20;99.90;;;;;;5033307;28;20080;-60
2021/07/06 03:44:35;;;;;;;3.80;3.03;;;15.50;99.90;;;;;;5034586;28;20032;-60
2021/07/06 03:47:02;;;;;;;3.67;2.80;;;16.30;99.90;;;;;;5033288;28;20025;-60
2021/07/06 03:49:27;;;;;;;4.28;3.20;;;17.20;99.90;;;;;;5034316;28;20049;-60
2021/07/06 03:51:53;;;;;;;3.00;2.70;;;18.20;99.90;;;;;;5033033;28;20436;-61
2021/07/06 03:54:19;;;;;;;2.63;2.42;;;19.10;99.90;;;;;;5034367;28;20025;-61
2021/07/06 03:56:44;;;;;;;3.35;2.28;;;20.10;99.90;;;;;;5032909;28;20473;-60
2021/07/06 03:59:09;;;;;;;2.58;2.38;;;21.00;99.90;;;;;;5034430;28;20070;-61
2021/07/06 04:01:35;;;;;;;2.97;2.13;;;21.80;99.90;;;;;;5034121;28;20508;-60
2021/07/06 04:04:03;;;;;;;2.20;2.00;;;22.70;99.90;;;;;;5050926;28;20032;-60
2021/07/06 04:06:28;;;;;;;2.88;2.33;;;23.50;99.90;;;;;;5053832;28;20048;-61
2021/07/06 04:08:54;;;;;;;2.55;2.05;;;24.20;99.90;;;;;;5052794;28;20262;-60
2021/07/06 04:11:19;;;;;;;1.95;1.85;;;24.50;99.90;;;;;;5052789;28;20032;-60
2021/07/06 04:13:45;;;;;;;3.60;2.03;;;24.30;99.90;;;;;;5053826;28;20032;-60
2021/07/06 04:16:11;;;;;;;2.33;2.10;;;24.20;99.90;;;;;;5053921;28;20100;-60
2021/07/06 04:18:36;;;;;;;2.85;1.90;;;23.70;99.90;;;;;;5053757;28;20055;-60
2021/07/06 04:21:06;;;;;;;6.75;2.75;;;23.10;99.90;;;;;;5053729;28;20350;-60
2021/07/06 04:23:32;;;;;;;2.67;1.77;;;23.60;99.90;;;;;;5053532;28;20017;-60
2021/07/06 04:25:57;;;;;;;3.65;2.20;;;23.70;99.90;;;;;;5053745;28;20075;-60
2021/07/06 04:28:23;;;;;;;3.78;2.08;;;24.50;99.90;;;;;;5052414;28;20061;-60
2021/07/06 04:30:48;;;;;;;2.38;2.10;;;25.50;99.90;;;;;;5053395;28;20098;-61
2021/07/06 04:33:14;;;;;;;2.53;2.33;;;26.40;99.90;;;;;;5053571;28;20059;-60
2021/07/06 04:35:39;;;;;;;2.92;1.85;;;27.10;99.90;;;;;;5047997;28;20025;-61
2021/07/06 04:38:05;;;;;;;2.97;2.33;;;27.80;99.90;;;;;;5033349;28;20044;-60
2021/07/06 04:40:30;;;;;;;4.50;2.28;;;28.50;99.90;;;;;;5033507;28;20397;-60
2021/07/06 04:42:56;;;;;;;6.72;2.35;;;29.00;99.90;;;;;;5032141;28;20120;-61
2021/07/06 04:45:22;;;;;;;2.58;2.38;;;29.50;99.90;;;;;;5033567;28;20053;-61
2021/07/06 04:47:48;;;;;;;5.88;2.45;;;29.30;99.90;;;;;;5033232;28;20022;-61
2021/07/06 04:50:15;;;;;;;4.85;2.80;;;28.70;99.90;;;;;;5032128;28;20033;-61
2021/07/06 04:52:44;;;;;;;5.43;2.40;;;28.60;99.90;;;;;;5031475;28;20021;-61
2021/07/06 04:55:10;;;;;;;3.85;2.33;;;28.70;99.90;;;;;;5033446;28;20026;-61
2021/07/06 04:57:35;;;;;;;3.20;2.20;;;29.50;99.90;;;;;;5031754;28;20171;-61
2021/07/06 05:00:01;;;;;;;2.63;2.10;;;30.50;99.90;;;;;;5033284;28;20112;-61
2021/07/06 05:02:27;;;;;;;4.40;2.03;;;31.30;99.90;;;;;;5036644;28;20041;-61
2021/07/06 05:04:52;;;;;;;2.30;1.88;;;32.10;99.50;;;;;;5048903;28;20037;-61
2021/07/06 05:07:18;;;;;;;3.60;1.65;;;32.70;98.00;;;;;;5031533;28;20069;-61
2021/07/06 05:09:43;;;;;;;2.28;2.00;;;33.30;96.30;;;;;;5032652;28;20105;-61
2021/07/06 05:12:09;;;;;;;4.05;1.98;;;33.00;96.00;;;;;;5031624;28;20037;-61
2021/07/06 05:14:34;;;;;;;1.77;1.67;;;32.80;93.60;;;;;;5032843;28;20113;-61
2021/07/06 05:17:01;;;;;;;2.47;1.80;;;32.30;95.00;;;;;;5032913;28;20468;-61
2021/07/06 05:19:27;;;;;;;3.15;2.05;;;32.60;93.80;;;;;;5032707;28;20083;-61
2021/07/06 05:21:52;;;;;;;2.20;2.00;;;33.40;91.90;;;;;;5026547;28;20037;-61
2021/07/06 05:24:18;;;;;;;2.00;1.67;;;34.00;90.20;;;;;;5024058;28;20080;-61
2021/07/06 05:26:43;;;;;;;3.15;1.65;;;34.20;88.90;;;;;;5036810;28;20109;-61
2021/07/06 05:29:09;;;;;;;1.70;1.45;;;33.50;90.20;;;;;;5030640;28;20485;-61
2021/07/06 05:31:34;;;;;;;3.30;1.95;;;32.40;91.90;;;;;;5035920;28;20031;-61
2021/07/06 05:34:00;;;;;;;2.10;1.88;;;31.60;91.90;;;;;;5050343;28;20107;-60
2021/07/06 05:36:25;;;;;;;1.75;1.63;;;31.40;91.10;;;;;;5038617;28;20075;-61
2021/07/06 05:38:52;;;;;;;1.85;1.75;;;31.90;90.80;;;;;;5032127;28;20060;-61
2021/07/06 05:41:18;;;;;;;1.92;1.83;;;32.70;88.00;;;;;;5049297;28;20036;-61
2021/07/06 05:43:44;;;;;;;2.58;1.40;;;33.30;86.30;;;;;;5050192;28;20025;-61
2021/07/06 05:46:09;;;;;;;4.90;1.65;;;33.70;83.80;;;;;;5050540;28;20021;-61
2021/07/06 05:48:35;;;;;;;1.58;1.48;;;33.90;81.30;;;;;;5050258;28;20029;-61
2021/07/06 05:51:00;;;;;;;1.85;1.65;;;34.20;78.80;;;;;;5044641;28;20029;-61
2021/07/06 05:53:26;;;;;;;2.45;1.70;;;34.20;75.80;;;;;;5048049;28;20159;-61
2021/07/06 05:55:51;;;;;;;3.40;1.80;;;34.50;77.40;;;;;;5043798;28;20036;-61
2021/07/06 05:58:17;;;;;;;1.20;1.10;;;35.20;75.80;;;;;;5029307;28;20021;-61
2021/07/06 06:00:43;;;;;;;3.35;1.40;;;35.90;73.60;;;;;;5030500;28;20485;-61
2021/07/06 06:03:10;;;;;;;0.90;0.90;;;36.60;71.30;;;;;;5030421;28;20045;-61
2021/07/06 06:05:39;;;;;;;2.10;1.60;;;37.40;69.80;;;;;;5029106;28;20388;-61
2021/07/06 06:08:06;;;;;;;1.48;1.38;;;38.10;67.00;;;;;;5030395;28;20149;-61
2021/07/06 06:10:32;;;;;;;1.55;1.20;;;38.10;62.90;;;;;;5017265;28;20112;-61
2021/07/06 06:12:57;;;;;;;2.15;1.17;;;38.10;62.40;;;;;;5029480;28;20525;-61
2021/07/06 06:15:23;;;;;;;4.78;1.40;;;37.70;60.60;;;;;;5036112;28;20074;-61
2021/07/06 06:17:48;;;;;;;1.75;1.08;;;37.80;59.20;;;;;;5050295;28;20036;-61
2021/07/06 06:20:14;;;;;;;4.78;1.55;;;37.90;59.70;;;;;;5049990;28;20025;-61
2021/07/06 06:22:40;;;;;;;1.63;1.52;;;37.90;58.30;;;;;;5050476;28;20036;-61
2021/07/06 06:25:06;;;;;;;2.35;1.50;;;37.70;58.00;;;;;;5050012;28;20100;-61
2021/07/06 06:27:32;;;;;;;3.72;1.52;;;37.30;58.80;;;;;;5042954;28;20029;-62
2021/07/06 06:29:58;;;;;;;1.40;1.00;;;37.50;58.70;;;;;;5043799;28;20032;-61
2021/07/06 06:32:23;;;;;;;2.80;1.20;;;37.90;58.70;;;;;;5032121;28;20057;-61
2021/07/06 06:34:50;;;;;;;1.70;1.42;;;38.20;58.60;;;;;;5033828;28;20100;-61
2021/07/06 06:37:16;;;;;;;1.48;1.08;;;38.40;56.70;;;;;;5034118;28;20078;-61
2021/07/06 06:39:42;;;;;;;1.38;1.17;;;38.50;56.50;;;;;;5033768;28;20033;-61
2021/07/06 06:42:08;;;;;;;1.80;1.23;;;38.60;55.70;;;;;;5033278;28;20029;-61
2021/07/06 06:44:33;;;;;;;1.92;1.10;;;38.30;55.30;;;;;;5033806;28;20030;-61
2021/07/06 06:46:59;;;;;;;2.15;1.42;;;37.90;55.00;;;;;;5033818;28;20550;-61
2021/07/06 06:49:25;;;;;;;2.42;1.00;;;37.90;54.90;;;;;;5033698;28;20056;-61
2021/07/06 06:51:50;;;;;;;0.90;0.90;;;38.10;55.10;;;;;;5033477;28;20048;-61
2021/07/06 06:54:17;;;;;;;1.20;1.00;;;38.30;55.10;;;;;;5033292;28;20021;-61
2021/07/06 06:56:43;;;;;;;1.58;1.00;;;39.00;54.10;;;;;;5015465;28;20026;-61
2021/07/06 06:59:09;;;;;;;1.70;0.90;;;39.20;51.70;;;;;;5023086;28;20044;-61
2021/07/06 07:01:35;;;;;;;7.05;1.27;;;39.20;52.40;;;;;;5053050;28;20041;-61
2021/07/06 07:04:01;;;;;;;1.20;1.10;;;39.10;50.60;;;;;;5033481;28;20136;-61
2021/07/06 07:06:26;;;;;;;1.35;0.98;;;38.70;51.40;;;;;;5041356;28;20021;-61
2021/07/06 07:08:52;;;;;;;1.27;1.10;;;38.60;51.20;;;;;;5026577;28;20121;-61
2021/07/06 07:11:18;;;;;;;0.90;0.90;;;38.10;51.30;;;;;;5037796;28;20025;-60
2021/07/06 07:13:44;;;;;;;2.88;1.10;;;37.90;51.90;;;;;;5034756;28;20049;-61
2021/07/06 07:16:10;;;;;;;3.45;1.20;;;38.10;50.90;;;;;;5035058;28;20026;-61
2021/07/06 07:18:35;;;;;;;1.00;0.90;;;38.30;51.30;;;;;;5035054;28;20105;-62
2021/07/06 07:21:01;;;;;;;1.13;0.80;;;38.50;51.00;;;;;;5034994;28;20036;-62
2021/07/06 07:23:26;;;;;;;1.08;1.00;;;38.50;50.30;;;;;;5035005;28;20056;-62
2021/07/06 07:25:52;;;;;;;0.80;0.80;;;38.70;50.10;;;;;;5034776;28;20053;-62
2021/07/06 07:28:17;;;;;;;2.75;1.05;;;39.20;50.00;;;;;;5033928;28;20049;-62
2021/07/06 07:30:43;;;;;;;0.95;0.70;;;39.10;47.90;;;;;;5034549;28;20029;-61
2021/07/06 07:33:08;;;;;;;1.55;0.90;;;38.80;47.60;;;;;;5034686;28;20033;-62
2021/07/06 07:35:34;;;;;;;0.70;0.70;;;38.50;48.60;;;;;;5034585;28;20047;-62
2021/07/06 07:37:59;;;;;;;1.05;0.70;;;38.90;48.70;;;;;;5034797;28;20100;-62
2021/07/06 07:40:25;;;;;;;1.35;0.77;;;39.90;48.00;;;;;;5034574;28;20542;-62
2021/07/06 07:42:51;;;;;;;0.75;0.65;;;40.50;46.60;;;;;;5033709;28;20039;-62
2021/07/06 07:45:17;;;;;;;1.05;0.63;;;40.10;45.30;;;;;;5034738;28;20108;-62
2021/07/06 07:47:42;;;;;;;2.47;0.80;;;39.90;45.40;;;;;;5034657;28;20477;-62
2021/07/06 07:50:08;;;;;;;2.38;0.70;;;39.00;45.50;;;;;;5032532;28;20044;-61
2021/07/06 07:52:35;;;;;;;1.27;0.60;;;38.80;46.60;;;;;;5034233;28;20385;-61
2021/07/06 07:55:03;;;;;;;0.50;0.50;;;38.70;46.00;;;;;;5034203;28;20053;-63
2021/07/06 07:57:29;;;;;;;0.80;0.70;;;39.20;46.20;;;;;;5032783;28;20021;-62
2021/07/06 07:59:55;;;;;;;0.98;0.70;;;39.60;45.30;;;;;;5039749;28;20048;-62
2021/07/06 08:02:22;;;;;;;1.23;0.70;;;39.50;45.80;;;;;;5046024;28;20057;-62
2021/07/06 08:04:47;;;;;;;1.85;0.68;;;39.20;44.70;;;;;;5044139;28;20064;-62
2021/07/06 08:07:13;;;;;;;1.73;0.75;;;38.30;44.90;;;;;;5034435;28;20100;-62
2021/07/06 08:09:39;;;;;;;0.60;0.60;;;37.50;46.80;;;;;;5034064;28;20033;-62
2021/07/06 08:12:05;;;;;;;0.60;0.47;;;37.40;47.50;;;;;;5033046;28;20017;-62
2021/07/06 08:14:31;;;;;;;0.50;0.50;;;38.70;46.70;;;;;;5034007;28;20532;-62
2021/07/06 08:16:58;;;;;;;2.72;0.57;;;39.70;45.30;;;;;;5032788;28;20121;-62
2021/07/06 08:19:24;;;;;;;0.47;0.47;;;40.60;44.00;;;;;;5033733;28;20022;-62
2021/07/06 08:21:50;;;;;;;1.83;0.70;;;40.80;43.40;;;;;;5033943;28;20076;-62
2021/07/06 08:24:17;;;;;;;0.57;0.50;;;40.50;43.50;;;;;;5033753;28;20025;-62
2021/07/06 08:26:42;;;;;;;0.50;0.50;;;40.40;44.30;;;;;;5031508;28;20025;-62
2021/07/06 08:29:08;;;;;;;0.75;0.75;;;40.70;43.50;;;;;;5033601;28;20037;-62
2021/07/06 08:31:34;;;;;;;0.47;0.47;;;40.70;44.00;;;;;;5032576;28;20078;-62
2021/07/06 08:33:59;;;;;;;1.33;0.73;;;40.90;43.10;;;;;;5033389;28;20021;-62
2021/07/06 08:36:25;;;;;;;0.82;0.70;;;40.40;42.20;;;;;;5033533;28;20021;-62
2021/07/06 08:38:51;;;;;;;0.73;0.50;;;40.40;42.40;;;;;;5033547;28;20469;-62
2021/07/06 08:41:16;;;;;;;0.80;0.57;;;40.70;42.60;;;;;;5032567;28;20021;-62
2021/07/06 08:43:42;;;;;;;0.68;0.57;;;41.40;42.70;;;;;;5033664;28;20025;-62
2021/07/06 08:46:07;;;;;;;0.52;0.50;;;42.00;42.00;;;;;;5033351;28;20108;-62
2021/07/06 08:48:34;;;;;;;0.77;0.55;;;42.10;41.00;;;;;;5033435;28;20104;-62
2021/07/06 08:51:01;;;;;;;1.10;0.50;;;42.50;41.00;;;;;;5033203;28;20045;-62
2021/07/06 08:53:30;;;;;;;2.85;0.70;;;42.40;40.00;;;;;;5033566;28;20108;-62
2021/07/06 08:55:58;;;;;;;2.80;0.60;;;41.80;40.10;;;;;;5032786;28;20033;-62
2021/07/06 08:58:24;;;;;;;2.72;0.70;;;41.10;40.40;;;;;;5032253;28;20112;-62
2021/07/06 09:00:49;;;;;;;1.75;0.60;;;40.30;41.30;;;;;;5033059;28;20061;-62
2021/07/06 09:03:15;;;;;;;0.63;0.63;;;39.80;42.10;;;;;;5032887;28;20042;-62
2021/07/06 09:05:40;;;;;;;0.60;0.50;;;39.60;42.60;;;;;;5033147;28;20033;-62
2021/07/06 09:08:08;;;;;;;2.00;0.70;;;40.10;42.90;;;;;;5033067;28;20025;-62
2021/07/06 09:10:36;;;;;;;1.02;0.68;;;40.20;42.30;;;;;;5033036;28;20270;-62
2021/07/06 09:13:01;;;;;;;1.48;0.80;;;40.00;42.20;;;;;;5031815;28;20026;-62
2021/07/06 09:15:30;;;;;;;3.10;0.60;;;39.40;42.50;;;;;;5032945;28;20485;-62
2021/07/06 09:18:16;;;;;;;0.50;0.50;;;39.70;43.00;;;;;;5031659;28;20024;-62
2021/07/06 09:20:55;;;;;;;1.40;0.57;;;40.10;41.70;;;;;;5032854;28;20041;-62
2021/07/06 09:23:25;;;;;;;0.57;0.57;;;40.40;42.00;;;;;;5032966;28;20107;-62
2021/07/06 09:26:29;;;;;;;1.30;0.93;;;40.40;41.90;;;;;;5032654;28;20104;-62
2021/07/06 09:29:00;;;;;;;0.90;0.55;;;40.40;41.60;;;;;;5009058;28;20037;-62
2021/07/06 09:31:33;;;;;;;1.38;0.70;;;39.60;42.10;;;;;;5032746;28;20397;-62
2021/07/06 09:34:07;;;;;;;2.38;0.70;;;39.80;41.90;;;;;;5032818;28;20501;-62
2021/07/06 09:36:50;;;;;;;1.10;0.75;;;39.70;42.10;;;;;;5032287;28;20033;-62
2021/07/06 09:39:21;;;;;;;1.75;0.85;;;39.50;42.20;;;;;;5032443;28;20025;-62
2021/07/06 09:41:59;;;;;;;0.70;0.68;;;39.80;41.50;;;;;;5031764;28;20029;-62
2021/07/06 09:44:30;;;;;;;0.77;0.52;;;39.20;42.00;;;;;;5032467;28;20422;-62
2021/07/06 09:47:12;;;;;;;1.05;0.60;;;39.40;42.60;;;;;;5032308;28;20065;-62
2021/07/06 09:49:41;;;;;;;2.45;0.63;;;39.40;42.00;;;;;;5032407;28;20060;-62
2021/07/06 09:52:15;;;;;;;0.70;0.70;;;39.20;42.50;;;;;;5032393;28;20026;-61
2021/07/06 09:54:44;;;;;;;0.98;0.70;;;39.30;41.70;;;;;;5032534;28;20021;-62
2021/07/06 09:57:28;;;;;;;4.82;0.70;;;38.40;42.20;;;;;;5031380;28;20485;-62
2021/07/06 10:00:04;;;;;;;1.73;0.70;;;37.70;43.80;;;;;;5032336;28;20076;-62
2021/07/06 10:02:31;;;;;;;4.15;0.70;;;36.80;44.80;;;;;;5032130;28;20207;-62
2021/07/06 10:04:58;;;;;;;2.33;0.80;;;35.70;46.60;;;;;;5032268;28;20033;-61
2021/07/06 10:07:26;;;;;;;0.50;0.50;;;34.80;47.90;;;;;;5033377;28;20029;-62
2021/07/06 10:09:53;;;;;;;1.52;0.80;;;34.30;49.00;;;;;;5036122;28;20024;-62
2021/07/06 10:12:20;;;;;;;1.13;0.68;;;33.80;50.50;;;;;;5035347;28;20025;-61
2021/07/06 10:14:47;;;;;;;2.05;0.73;;;33.30;51.00;;;;;;5036166;28;20021;-61
2021/07/06 10:17:13;;;;;;;0.68;0.68;;;32.80;52.50;;;;;;5035821;28;20376;-60
2021/07/06 10:19:40;;;;;;;0.75;0.70;;;32.40;53.90;;;;;;5036036;28;20064;-61
2021/07/06 10:22:08;;;;;;;1.50;0.70;;;31.80;55.10;;;;;;5036437;28;20029;-61
2021/07/06 10:24:42;;;;;;;0.70;0.63;;;31.50;55.90;;;;;;5036079;28;20082;-60
2021/07/06 10:27:15;;;;;;;1.15;0.88;;;31.40;58.00;;;;;;5033875;28;20449;-60
2021/07/06 10:29:41;;;;;;;0.50;0.50;;;30.90;59.80;;;;;;5035842;28;20033;-61
2021/07/06 10:32:07;;;;;;;0.93;0.82;;;30.90;59.10;;;;;;5035981;28;20096;-61
2021/07/06 10:34:43;;;;;;;0.70;0.70;;;30.90;60.80;;;;;;5034821;28;20117;-61
2021/07/06 10:37:29;;;;;;;1.08;0.75;;;30.70;61.90;;;;;;5035617;28;20536;-61
2021/07/06 10:39:55;;;;;;;;;;;30.70;62.40;;;;;;5035005;28;20404;-61
2021/07/06 10:42:36;;;;;;;;;;;30.60;62.20;;;;;;5035350;28;20297;-61
2021/07/06 10:45:22;;;;;;;2.65;0.90;;;30.40;61.40;;;;;;5035627;28;19905;-61
2021/07/06 10:47:51;;;;;;;1.92;0.82;;;30.10;63.00;;;;;;5035518;28;20161;-61
2021/07/06 10:50:29;;;;;;;0.60;0.60;;;30.00;63.30;;;;;;5035492;28;20166;-61
2021/07/06 10:53:24;;;;;;;0.77;0.75;;;29.90;63.30;;;;;;5035639;28;20037;-61
2021/07/06 10:56:10;;;;;;;2.38;0.63;;;29.90;64.10;;;;;;5035364;28;20021;-61
2021/07/06 10:58:53;;;;;;;0.50;0.50;;;30.00;68.80;;;;;;5035703;28;20025;-61
2021/07/06 11:01:59;;;;;;;0.95;0.60;;;30.10;65.70;;;;;;5035397;28;20018;-61
2021/07/06 11:04:36;;;;;;;0.70;0.67;;;30.20;65.00;;;;;;5014491;28;20081;-61
2021/07/06 11:07:03;;;;;;;1.30;0.77;;;30.10;65.80;;;;;;5014386;28;20030;-61
2021/07/06 11:09:35;;;;;;;4.68;0.80;;;30.20;65.00;;;;;;5014337;28;20112;-61
2021/07/06 11:12:24;;;;;;;2.92;0.70;;;30.00;65.50;;;;;;5013426;28;20026;-61
2021/07/06 11:15:12;;;;;;;1.02;0.77;;;30.00;65.10;;;;;;5014293;28;20026;-61
2021/07/06 11:17:48;;;;;;;2.30;0.80;;;29.80;65.70;;;;;;5013868;28;20089;-61
2021/07/06 11:20:29;;;;;;;0.60;0.60;;;29.70;65.50;;;;;;5014014;28;20065;-61
2021/07/06 11:22:56;;;;;;;3.72;0.70;;;29.60;66.80;;;;;;5014194;28;20477;-61
2021/07/06 11:25:23;;;;;;;0.45;0.40;;;29.70;66.60;;;;;;5014013;28;20393;-61
2021/07/06 11:27:57;;;;;;;2.47;0.65;;;29.70;66.20;;;;;;5013254;28;20026;-61
2021/07/06 11:30:30;;;;;;;0.63;0.50;;;29.60;65.20;;;;;;5013746;28;20026;-61
2021/07/06 11:33:15;;;;;;;2.33;0.73;;;29.60;66.10;;;;;;5014191;28;20032;-62
2021/07/06 11:35:54;;;;;;;1.02;0.60;;;29.50;65.10;;;;;;5019248;28;20021;-61
2021/07/06 11:38:20;;;;;;;2.47;0.60;;;29.50;64.30;;;;;;5033612;28;20032;-61
2021/07/06 11:40:48;;;;;;;0.80;0.50;;;29.50;64.40;;;;;;5033693;28;20029;-61
2021/07/06 11:43:17;;;;;;;0.73;0.50;;;29.50;63.70;;;;;;5032762;28;20053;-61
2021/07/06 11:46:04;;;;;;;0.73;0.50;;;29.60;64.30;;;;;;5033449;28;20032;-61
2021/07/06 11:48:34;;;;;;;1.25;0.70;;;29.80;64.90;;;;;;5033335;28;20040;-62
2021/07/06 11:50:59;;;;;;;1.13;0.70;;;29.80;62.20;;;;;;5033468;28;20559;-61
2021/07/06 11:53:33;;;;;;;0.75;0.57;;;29.80;61.30;;;;;;5033468;28;20104;-61
2021/07/06 11:56:00;;;;;;;1.17;0.60;;;29.80;60.80;;;;;;5031843;28;20088;-61
2021/07/06 11:58:29;;;;;;;0.30;0.30;;;29.90;61.40;;;;;;5033013;28;20018;-61
2021/07/06 12:00:58;;;;;;;3.25;0.70;;;30.00;62.00;;;;;;5033226;28;20028;-61
2021/07/06 12:03:31;;;;;;;1.95;0.55;;;30.10;62.30;;;;;;4997050;28;1027820;-61
2021/07/06 12:05:57;;;;;;;2.00;0.60;;;30.10;63.00;;;;;;5034274;28;20022;-61
2021/07/06 12:08:26;;;;;;;2.97;0.60;;;30.10;62.00;;;;;;5032910;28;20017;-62
2021/07/06 12:10:57;;;;;;;3.72;0.47;;;30.10;61.90;;;;;;5034132;28;20045;-61
2021/07/06 12:13:23;;;;;;;1.02;0.50;;;30.10;61.50;;;;;;5033366;28;20072;-61
2021/07/06 12:15:50;;;;;;;1.42;0.60;;;30.00;60.90;;;;;;5033962;28;20026;-61
2021/07/06 12:18:16;;;;;;;3.30;0.50;;;30.00;61.60;;;;;;5034049;28;20060;-61
2021/07/06 12:21:09;;;;;;;1.15;0.50;;;29.90;62.00;;;;;;5034018;28;20432;-61
2021/07/06 12:23:44;;;;;;;0.60;0.40;;;29.80;60.90;;;;;;5033904;28;20128;-61
2021/07/06 12:26:12;;;;;;;2.55;0.68;;;29.80;61.20;;;;;;5031472;28;20033;-62
2021/07/06 12:28:40;;;;;;;0.80;0.80;;;29.80;60.00;;;;;;5033877;28;20128;-61
2021/07/06 12:31:35;;;;;;;0.30;0.30;;;29.70;59.40;;;;;;5032906;28;20056;-62
2021/07/06 12:34:05;;;;;;;1.27;0.68;;;29.80;61.90;;;;;;5032988;28;20087;-62
2021/07/06 12:36:49;;;;;;;0.60;0.60;;;29.90;61.90;;;;;;5033419;28;20049;-61
2021/07/06 12:39:26;;;;;;;1.20;0.68;;;30.10;60.60;;;;;;5033721;28;20034;-61
2021/07/06 12:42:01;;;;;;;0.30;0.30;;;30.00;61.50;;;;;;5030773;28;20021;-61
2021/07/06 12:44:38;;;;;;;2.73;0.60;;;30.10;60.70;;;;;;5033530;28;20036;-62
2021/07/06 12:47:23;;;;;;;2.88;0.60;;;30.30;60.60;;;;;;5033270;28;20496;-61
2021/07/06 12:50:16;;;;;;;0.77;0.70;;;30.40;60.60;;;;;;5033412;28;20047;-62
2021/07/06 12:52:53;;;;;;;1.65;0.60;;;30.30;60.90;;;;;;5031751;28;20300;-62
2021/07/06 12:55:19;;;;;;;1.33;0.40;;;30.30;59.20;;;;;;5033093;28;20025;-63